Time;durP1;ratioP1;P1;durP2;ratioP2;P2;SDS_P1;SDS_P2;PMS_P1;PMS_P2;Temp;Humidity;BMP_temperature;BMP_pressure;BME280_temperature;BME280_humidity;BME280_pressure;Samples;Min_cycle;Max_cycle;Signal;HPM_P1;HPM_P2
2021/11/16 08:13:31;;;;;;;26.73;16.48;;;;;;;;;;6260786;22;20382;-42
2021/11/16 08:16:09;;;;;;;23.98;15.35;;;;;;;;;;6271915;22;20390;-43
2021/11/16 08:18:42;;;;;;;22.67;14.82;;;;;;;;;;6268637;22;20349;-40
2021/11/16 08:21:08;;;;;;;21.75;13.50;;;;;;;;;;6268568;22;20390;-40
2021/11/16 08:23:35;;;;;;;20.27;13.50;;;;;;;;;;6271135;22;20364;-39
2021/11/16 08:26:01;;;;;;;20.52;12.90;;;;;;;;;;6270997;22;20398;-41
2021/11/16 08:28:27;;;;;;;17.87;12.27;;;;;;;;;;6269125;22;20435;-40
2021/11/16 08:30:53;;;;;;;18.02;11.93;;;;;;;;;;6269129;22;20410;-44
2021/11/16 08:33:20;;;;;;;18.00;12.00;;;;;;;;;;6271099;22;20387;-41
2021/11/16 08:35:48;;;;;;;20.52;12.02;;;;;;;;;;6270452;22;20359;-43
2021/11/16 08:38:17;;;;;;;17.25;11.60;;;;;;;;;;6269125;22;20356;-40
2021/11/16 08:40:45;;;;;;;15.83;11.17;;;;;;;;;;6268664;22;20356;-40
2021/11/16 08:43:17;;;;;;;16.10;10.93;;;;;;;;;;6269403;22;20634;-40
2021/11/16 08:45:47;;;;;;;16.05;10.40;;;;;;;;;;6271228;22;20402;-40
2021/11/16 08:48:17;;;;;;;16.52;10.70;;;;;;;;;;6269233;22;20352;-42
2021/11/16 08:50:45;;;;;;;15.57;10.30;;;;;;;;;;6269065;22;20333;-45
2021/11/16 08:53:12;;;;;;;15.48;10.27;;;;;;;;;;6268895;22;20356;-44
2021/11/16 08:55:40;;;;;;;16.50;10.82;;;;;;;;;;6268928;22;20733;-44
2021/11/16 08:58:07;;;;;;;15.20;10.50;;;;;;;;;;6269222;22;20344;-47
2021/11/16 09:00:45;;;;;;;14.82;10.02;;;;;;;;;;6268855;22;20444;-44
2021/11/16 09:03:11;;;;;;;15.18;10.18;;;;;;;;;;6270871;22;20494;-44
2021/11/16 09:05:43;;;;;;;15.13;10.02;;;;;;;;;;6270235;22;20353;-45
2021/11/16 09:08:14;;;;;;;13.68;9.60;;;;;;;;;;6269263;22;20357;-44
2021/11/16 09:10:41;;;;;;;14.37;9.73;;;;;;;;;;6269568;22;20359;-44
2021/11/16 09:13:09;;;;;;;14.50;9.85;;;;;;;;;;6267321;22;20421;-46
2021/11/16 09:15:41;;;;;;;14.02;9.32;;;;;;;;;;6268700;22;20781;-45
2021/11/16 09:18:09;;;;;;;13.65;9.10;;;;;;;;;;6270122;22;20356;-45
2021/11/16 09:20:36;;;;;;;13.98;9.50;;;;;;;;;;6269704;22;20329;-45
2021/11/16 09:23:02;;;;;;;12.80;8.73;;;;;;;;;;6270045;22;20385;-44
2021/11/16 09:25:31;;;;;;;14.35;9.55;;;;;;;;;;6270189;22;20343;-45
2021/11/16 09:28:05;;;;;;;12.97;8.87;;;;;;;;;;6266270;22;20368;-43
2021/11/16 09:30:35;;;;;;;13.02;9.32;;;;;;;;;;6269695;22;20669;-44
2021/11/16 09:33:04;;;;;;;12.88;8.80;;;;;;;;;;6268358;22;20357;-43
2021/11/16 09:35:47;;;;;;;14.63;9.38;;;;;;;;;;6270311;22;20419;-43
2021/11/16 09:38:13;;;;;;;11.60;8.13;;;;;;;;;;6267904;22;20348;-43
2021/11/16 09:40:40;;;;;;;13.13;9.07;;;;;;;;;;6266360;22;20454;-45
2021/11/16 09:43:08;;;;;;;12.45;8.48;;;;;;;;;;6269968;22;20647;-43
2021/11/16 09:45:41;;;;;;;12.17;8.47;;;;;;;;;;6267751;22;20697;-48
2021/11/16 09:48:07;;;;;;;11.35;8.68;;;;;;;;;;6267741;22;20415;-46
2021/11/16 09:50:34;;;;;;;11.93;8.48;;;;;;;;;;6269947;22;20373;-45
2021/11/16 09:53:02;;;;;;;11.50;8.60;;;;;;;;;;6270273;22;20349;-45
2021/11/16 09:55:34;;;;;;;11.65;8.25;;;;;;;;;;6270085;22;20344;-44
2021/11/16 09:58:02;;;;;;;11.95;8.85;;;;;;;;;;6269996;22;20394;-50
2021/11/16 10:00:30;;;;;;;12.00;8.70;;;;;;;;;;6269910;22;20336;-44
2021/11/16 10:03:02;;;;;;;10.95;7.80;;;;;;;;;;6270313;22;20333;-45
2021/11/16 10:05:29;;;;;;;11.95;8.48;;;;;;;;;;6270015;22;20355;-45
2021/11/16 10:07:59;;;;;;;11.43;8.15;;;;;;;;;;6267988;22;20364;-44
2021/11/16 10:10:26;;;;;;;11.33;7.93;;;;;;;;;;6268100;22;20515;-47
2021/11/16 10:12:57;;;;;;;11.03;8.50;;;;;;;;;;6268293;22;20753;-50
2021/11/16 10:15:25;;;;;;;10.25;7.82;;;;;;;;;;6268086;22;20384;-44
2021/11/16 10:17:51;;;;;;;11.23;8.35;;;;;;;;;;6268793;22;20344;-44
2021/11/16 10:20:19;;;;;;;10.67;7.77;;;;;;;;;;6267566;22;20450;-43
2021/11/16 10:22:50;;;;;;;11.53;8.23;;;;;;;;;;6268980;22;20797;-42
2021/11/16 10:25:17;;;;;;;11.13;8.15;;;;;;;;;;6266826;22;20348;-46
2021/11/16 10:27:45;;;;;;;12.10;8.35;;;;;;;;;;6268857;22;20332;-53
2021/11/16 10:30:22;;;;;;;11.73;8.02;;;;;;;;;;6268831;22;20347;-46
2021/11/16 10:33:08;;;;;;;10.18;7.57;;;;;;;;;;6266771;22;20348;-41
2021/11/16 10:35:35;;;;;;;11.40;8.10;;;;;;;;;;6267874;22;20409;-48
2021/11/16 10:38:07;;;;;;;10.65;8.13;;;;;;;;;;6269364;22;20349;-45
2021/11/16 10:40:34;;;;;;;11.63;8.63;;;;;;;;;;6270016;22;20765;-46
2021/11/16 10:43:01;;;;;;;10.60;7.73;;;;;;;;;;6270369;22;20367;-46
2021/11/16 10:45:29;;;;;;;11.07;7.90;;;;;;;;;;6269925;22;20368;-47
2021/11/16 10:47:59;;;;;;;12.25;8.85;;;;;;;;;;6269714;22;20808;-46
2021/11/16 10:50:28;;;;;;;11.13;8.23;;;;;;;;;;6269956;22;20336;-45
2021/11/16 10:53:10;;;;;;;11.73;8.35;;;;;;;;;;6268005;22;20866;-45
2021/11/16 10:55:44;;;;;;;11.13;8.20;;;;;;;;;;6267321;22;20368;-46
2021/11/16 10:58:11;;;;;;;10.65;7.95;;;;;;;;;;6267714;22;20356;-46
2021/11/16 11:00:53;;;;;;;10.60;8.10;;;;;;;;;;6268303;22;20361;-43
2021/11/16 11:03:20;;;;;;;11.23;7.70;;;;;;;;;;6268126;22;20336;-44
2021/11/16 11:05:47;;;;;;;12.13;8.55;;;;;;;;;;6267916;22;20349;-46
2021/11/16 11:08:30;;;;;;;11.75;8.00;;;;;;;;;;6269563;22;20902;-44
2021/11/16 11:10:56;;;;;;;10.85;8.27;;;;;;;;;;6270317;22;20329;-40
2021/11/16 11:13:23;;;;;;;15.25;10.65;;;;;;;;;;6270124;22;20449;-39
2021/11/16 11:15:49;;;;;;;14.98;10.57;;;;;;;;;;6267679;22;20375;-40
2021/11/16 11:18:32;;;;;;;16.73;12.13;;;;;;;;;;6267306;22;20369;-40
2021/11/16 11:21:00;;;;;;;19.52;12.82;;;;;;;;;;6269547;22;20346;-40
2021/11/16 11:23:40;;;;;;;18.40;12.68;;;;;;;;;;6269112;22;20336;-39
2021/11/16 11:26:18;;;;;;;20.73;13.33;;;;;;;;;;6269746;22;20347;-40
2021/11/16 11:28:54;;;;;;;21.47;13.53;;;;;;;;;;6268020;22;20708;-40
2021/11/16 11:31:24;;;;;;;19.08;13.82;;;;;;;;;;6269861;22;20340;-39
2021/11/16 11:33:50;;;;;;;18.48;12.68;;;;;;;;;;6267358;22;20695;-39
2021/11/16 11:36:17;;;;;;;19.13;13.10;;;;;;;;;;6269376;22;20367;-39
2021/11/16 11:38:43;;;;;;;20.33;14.00;;;;;;;;;;6269654;22;20370;-40
2021/11/16 11:41:10;;;;;;;20.65;14.45;;;;;;;;;;6270082;22;20333;-40
2021/11/16 11:43:36;;;;;;;20.67;13.85;;;;;;;;;;6270810;22;20440;-40
2021/11/16 11:46:02;;;;;;;20.05;13.75;;;;;;;;;;6272624;22;20328;-41
2021/11/16 11:48:28;;;;;;;22.35;14.07;;;;;;;;;;6272430;22;20347;-40
2021/11/16 11:51:11;;;;;;;20.92;13.90;;;;;;;;;;6272479;22;20772;-39
2021/11/16 11:53:37;;;;;;;20.67;14.55;;;;;;;;;;6272387;22;20383;-40
2021/11/16 11:56:07;;;;;;;21.58;14.20;;;;;;;;;;6272658;22;20332;-39
2021/11/16 11:58:41;;;;;;;20.27;13.82;;;;;;;;;;6270138;22;20348;-40
2021/11/16 12:01:08;;;;;;;23.38;14.85;;;;;;;;;;6271775;22;20355;-40
2021/11/16 12:03:36;;;;;;;20.42;14.38;;;;;;;;;;6271658;22;20486;-40
2021/11/16 12:06:04;;;;;;;19.85;13.88;;;;;;;;;;6269112;22;20426;-41
2021/11/16 12:08:31;;;;;;;20.40;14.10;;;;;;;;;;6271112;22;20425;-41
2021/11/16 12:10:57;;;;;;;21.90;14.82;;;;;;;;;;6272509;22;20350;-40
2021/11/16 12:13:28;;;;;;;20.80;14.65;;;;;;;;;;6271637;22;20805;-41
2021/11/16 12:16:05;;;;;;;22.43;14.93;;;;;;;;;;6271503;22;20332;-40
2021/11/16 12:18:35;;;;;;;20.58;14.43;;;;;;;;;;6270805;22;20844;-39
2021/11/16 12:21:02;;;;;;;22.30;14.80;;;;;;;;;;6268958;22;20356;-39
2021/11/16 12:23:58;;;;;;;20.25;14.20;;;;;;;;;;6271101;22;20431;-40
2021/11/16 12:26:25;;;;;;;21.55;15.07;;;;;;;;;;6269387;22;20367;-39
2021/11/16 12:28:51;;;;;;;20.63;13.93;;;;;;;;;;6270956;22;20331;-39
2021/11/16 12:31:28;;;;;;;21.30;14.68;;;;;;;;;;6271282;22;20498;-39
2021/11/16 12:33:56;;;;;;;20.55;13.93;;;;;;;;;;6270793;22;20388;-41
2021/11/16 12:36:28;;;;;;;19.88;13.93;;;;;;;;;;6271169;22;20360;-40
2021/11/16 12:38:54;;;;;;;21.15;14.77;;;;;;;;;;6270814;22;20367;-40
2021/11/16 12:41:29;;;;;;;21.75;14.23;;;;;;;;;;6271238;22;20325;-39
2021/11/16 12:43:57;;;;;;;22.52;14.77;;;;;;;;;;6268694;22;20376;-40
2021/11/16 12:46:24;;;;;;;21.30;14.25;;;;;;;;;;6268812;22;20361;-41
2021/11/16 12:48:52;;;;;;;20.48;13.75;;;;;;;;;;6270852;22;20344;-40
2021/11/16 12:51:33;;;;;;;22.20;14.07;;;;;;;;;;6268936;22;20463;-40
2021/11/16 12:54:00;;;;;;;21.80;14.55;;;;;;;;;;6271091;22;20803;-39
2021/11/16 12:56:46;;;;;;;23.65;15.05;;;;;;;;;;6270827;22;20769;-39
2021/11/16 12:59:13;;;;;;;22.00;15.20;;;;;;;;;;6259710;22;20420;-40
2021/11/16 13:01:40;;;;;;;22.67;14.73;;;;;;;;;;6268562;22;20356;-45
2021/11/16 13:04:10;;;;;;;21.60;14.02;;;;;;;;;;6269499;22;20349;-46
2021/11/16 13:06:37;;;;;;;21.60;13.52;;;;;;;;;;6270392;22;20443;-43
2021/11/16 13:09:05;;;;;;;20.08;13.43;;;;;;;;;;6270653;22;20335;-48
2021/11/16 13:11:40;;;;;;;20.00;13.77;;;;;;;;;;6269469;22;20357;-45
2021/11/16 13:14:10;;;;;;;17.40;12.47;;;;;;;;;;6268804;22;20813;-46
2021/11/16 13:16:36;;;;;;;19.42;12.77;;;;;;;;;;6267893;22;20785;-48
2021/11/16 13:19:03;;;;;;;17.92;12.07;;;;;;;;;;6270534;22;20332;-44
2021/11/16 13:21:30;;;;;;;18.35;12.02;;;;;;;;;;6269741;22;20813;-44
2021/11/16 13:23:59;;;;;;;17.38;11.85;;;;;;;;;;6271330;22;20718;-42
2021/11/16 13:26:29;;;;;;;16.52;11.68;;;;;;;;;;6272542;22;20436;-46
2021/11/16 13:31:44;;;;;;;18.37;12.40;;;;;;;;;;6272823;22;20340;-44
2021/11/16 13:34:20;;;;;;;16.27;11.50;;;;;;;;;;6271214;22;20384;-44
2021/11/16 13:36:49;;;;;;;16.00;10.95;;;;;;;;;;6270031;22;20353;-48
2021/11/16 13:39:18;;;;;;;14.35;10.00;;;;;;;;;;6270260;22;20346;-44
2021/11/16 13:41:47;;;;;;;16.27;10.75;;;;;;;;;;6270196;22;20341;-46
2021/11/16 13:44:16;;;;;;;14.15;10.25;;;;;;;;;;6268810;22;20348;-49
2021/11/16 13:46:43;;;;;;;14.45;9.82;;;;;;;;;;6269631;22;20345;-46
2021/11/16 13:49:18;;;;;;;14.00;10.20;;;;;;;;;;6269501;22;20618;-46
2021/11/16 13:51:44;;;;;;;13.52;9.48;;;;;;;;;;6270429;22;20347;-42
2021/11/16 13:54:11;;;;;;;13.30;9.32;;;;;;;;;;6271014;22;20840;-46
2021/11/16 13:56:37;;;;;;;14.68;9.85;;;;;;;;;;6268785;22;20653;-48
2021/11/16 13:59:17;;;;;;;13.10;8.90;;;;;;;;;;6269135;22;20495;-45
2021/11/16 14:01:44;;;;;;;12.90;9.02;;;;;;;;;;6267978;22;20728;-46
2021/11/16 14:04:11;;;;;;;12.13;9.00;;;;;;;;;;6270499;22;20704;-46
2021/11/16 14:06:38;;;;;;;14.00;9.57;;;;;;;;;;6268409;22;20409;-47
2021/11/16 14:09:13;;;;;;;12.33;8.60;;;;;;;;;;6268245;22;20380;-49
2021/11/16 14:11:49;;;;;;;13.02;8.52;;;;;;;;;;6269181;22;20718;-44
2021/11/16 14:14:16;;;;;;;12.18;8.32;;;;;;;;;;6268862;22;20384;-45
2021/11/16 14:16:42;;;;;;;11.23;7.90;;;;;;;;;;6268182;22;20353;-44
2021/11/16 14:19:08;;;;;;;11.60;8.65;;;;;;;;;;6270025;22;20331;-45
2021/11/16 14:21:38;;;;;;;13.20;8.73;;;;;;;;;;6269834;22;20428;-42
2021/11/16 14:24:07;;;;;;;11.18;7.70;;;;;;;;;;6268588;22;20805;-49
2021/11/16 14:26:33;;;;;;;10.35;7.60;;;;;;;;;;6268350;22;20355;-45
2021/11/16 14:29:00;;;;;;;11.18;7.70;;;;;;;;;;6270364;22;20333;-51
2021/11/16 14:31:31;;;;;;;12.68;8.82;;;;;;;;;;6269446;22;20390;-48
2021/11/16 14:34:02;;;;;;;11.40;8.05;;;;;;;;;;6267900;22;20440;-47
2021/11/16 14:36:31;;;;;;;13.20;8.70;;;;;;;;;;6267332;22;20402;-45
2021/11/16 14:39:03;;;;;;;12.38;8.18;;;;;;;;;;6268878;22;20355;-46
2021/11/16 14:41:29;;;;;;;10.35;7.85;;;;;;;;;;6267908;22;20514;-44
2021/11/16 14:44:05;;;;;;;10.80;7.38;;;;;;;;;;6269615;22;20377;-48
2021/11/16 14:46:32;;;;;;;11.02;7.80;;;;;;;;;;6268301;22;20441;-47
2021/11/16 14:48:59;;;;;;;11.90;7.85;;;;;;;;;;6269636;22;20402;-45
2021/11/16 14:51:33;;;;;;;159.15;118.90;;;;;;;;;;6268885;22;20367;-48
2021/11/16 14:54:00;;;;;;;71.53;65.28;;;;;;;;;;6267732;22;20851;-46
2021/11/16 14:56:28;;;;;;;90.72;81.32;;;;;;;;;;6267946;22;20356;-46
2021/11/16 14:58:59;;;;;;;83.20;75.13;;;;;;;;;;6267101;22;20409;-49
2021/11/16 15:01:27;;;;;;;10.65;7.68;;;;;;;;;;6269897;22;20348;-49
2021/11/16 15:03:55;;;;;;;9.30;6.63;;;;;;;;;;6269756;22;21375;-46
2021/11/16 15:06:23;;;;;;;9.23;6.85;;;;;;;;;;6267864;22;20703;-47
2021/11/16 15:08:50;;;;;;;10.95;7.50;;;;;;;;;;6268177;22;20829;-44
2021/11/16 15:11:16;;;;;;;18.85;12.80;;;;;;;;;;6269215;22;20356;-51
2021/11/16 15:13:46;;;;;;;26.48;17.92;;;;;;;;;;6268070;22;20384;-51
2021/11/16 15:16:14;;;;;;;28.40;19.23;;;;;;;;;;6270176;22;20421;-45
2021/11/16 15:19:01;;;;;;;30.20;19.52;;;;;;;;;;6267710;22;20352;-49
2021/11/16 15:21:30;;;;;;;30.38;19.95;;;;;;;;;;6269205;22;20669;-46
2021/11/16 15:24:22;;;;;;;31.37;19.40;;;;;;;;;;6271398;22;20336;-49
2021/11/16 15:26:48;;;;;;;27.95;19.30;;;;;;;;;;6269366;22;20453;-50
2021/11/16 15:29:14;;;;;;;28.53;19.20;;;;;;;;;;6269723;22;20356;-47
2021/11/16 15:31:45;;;;;;;28.88;19.08;;;;;;;;;;6268903;22;20355;-44
2021/11/16 15:34:14;;;;;;;26.00;17.48;;;;;;;;;;6271417;22;20414;-43
2021/11/16 15:36:41;;;;;;;24.15;16.63;;;;;;;;;;6269553;22;20372;-42
2021/11/16 15:39:08;;;;;;;23.50;15.93;;;;;;;;;;6269124;22;20355;-48
2021/11/16 15:47:15;;;;;;;24.10;15.43;;;;;;;;;;6270037;22;20336;-41
2021/11/16 15:52:44;;;;;;;22.55;14.80;;;;;;;;;;6270884;22;20374;-42
2021/11/16 15:57:55;;;;;;;21.48;14.05;;;;;;;;;;6271066;22;20631;-42
2021/11/16 16:00:23;;;;;;;18.48;12.95;;;;;;;;;;6271107;22;20425;-42
2021/11/16 16:02:53;;;;;;;19.83;13.57;;;;;;;;;;6271055;22;20333;-46
2021/11/16 16:05:22;;;;;;;20.33;13.37;;;;;;;;;;6270243;22;20388;-50
2021/11/16 16:07:58;;;;;;;20.73;14.20;;;;;;;;;;6271377;22;20340;-40
2021/11/16 16:10:28;;;;;;;20.27;13.43;;;;;;;;;;6270828;22;20337;-42
2021/11/16 16:12:54;;;;;;;17.95;12.02;;;;;;;;;;6267549;22;20833;-47
2021/11/16 16:15:31;;;;;;;19.25;13.27;;;;;;;;;;6269715;22;20836;-47
2021/11/16 16:17:57;;;;;;;20.48;13.73;;;;;;;;;;6270320;22;20359;-44
2021/11/16 16:20:24;;;;;;;21.52;14.30;;;;;;;;;;6267475;22;20410;-45
2021/11/16 16:22:51;;;;;;;22.30;15.48;;;;;;;;;;6268577;22;20340;-45
2021/11/16 16:25:18;;;;;;;20.67;14.43;;;;;;;;;;6269182;22;20356;-45
2021/11/16 16:27:46;;;;;;;23.55;15.98;;;;;;;;;;6270781;22;20336;-43
2021/11/16 16:30:12;;;;;;;21.98;15.52;;;;;;;;;;6270152;22;20832;-42
2021/11/16 16:32:38;;;;;;;23.23;15.77;;;;;;;;;;6268773;22;20800;-42
2021/11/16 16:35:05;;;;;;;22.25;15.50;;;;;;;;;;6270350;22;20360;-45
2021/11/16 16:37:32;;;;;;;23.23;15.52;;;;;;;;;;6268571;22;20451;-42
2021/11/16 16:39:59;;;;;;;24.17;15.65;;;;;;;;;;6269259;22;20345;-43
2021/11/16 16:42:25;;;;;;;23.77;16.05;;;;;;;;;;6268423;22;20355;-42
2021/11/16 16:44:52;;;;;;;23.95;16.08;;;;;;;;;;6271037;22;20352;-42
2021/11/16 16:47:20;;;;;;;24.48;15.60;;;;;;;;;;6268648;22;20436;-45
2021/11/16 16:49:47;;;;;;;22.63;15.82;;;;;;;;;;6270807;22;20407;-43
2021/11/16 16:52:13;;;;;;;22.65;15.65;;;;;;;;;;6268866;22;20672;-42
2021/11/16 16:54:39;;;;;;;27.95;18.20;;;;;;;;;;6269578;22;20368;-53
2021/11/16 16:57:05;;;;;;;26.13;17.23;;;;;;;;;;6267359;22;20356;-48
2021/11/16 16:59:33;;;;;;;25.55;16.60;;;;;;;;;;6270911;22;20332;-48
2021/11/16 17:02:08;;;;;;;23.70;16.52;;;;;;;;;;6270601;22;20336;-48
2021/11/16 17:04:41;;;;;;;24.37;16.47;;;;;;;;;;6268899;22;20375;-47
2021/11/16 17:07:08;;;;;;;23.00;15.68;;;;;;;;;;6266949;22;20773;-48
2021/11/16 17:09:34;;;;;;;23.45;15.98;;;;;;;;;;6268743;22;20336;-45
2021/11/16 17:12:06;;;;;;;21.67;15.07;;;;;;;;;;6270357;22;20367;-49
2021/11/16 17:14:33;;;;;;;21.65;14.68;;;;;;;;;;6267611;22;20388;-45
2021/11/16 17:16:59;;;;;;;21.10;14.90;;;;;;;;;;6271039;22;20432;-48
2021/11/16 17:19:25;;;;;;;21.73;14.40;;;;;;;;;;6269376;22;20429;-47
2021/11/16 17:21:52;;;;;;;21.13;14.43;;;;;;;;;;6271269;22;20339;-45
2021/11/16 17:24:18;;;;;;;20.73;13.85;;;;;;;;;;6268670;22;20431;-52
2021/11/16 17:26:45;;;;;;;19.40;13.48;;;;;;;;;;6268894;22;20357;-46
2021/11/16 17:29:11;;;;;;;19.30;13.15;;;;;;;;;;6269695;22;20352;-50
2021/11/16 17:31:37;;;;;;;20.55;14.00;;;;;;;;;;6269105;22;20356;-49
2021/11/16 17:34:04;;;;;;;19.67;13.35;;;;;;;;;;6269157;22;20384;-49
2021/11/16 17:36:31;;;;;;;18.30;12.63;;;;;;;;;;6271368;22;20749;-48
2021/11/16 17:39:02;;;;;;;19.67;12.77;;;;;;;;;;6269114;22;20745;-46
2021/11/16 17:41:28;;;;;;;20.23;12.93;;;;;;;;;;6268227;22;20348;-53
2021/11/16 17:43:55;;;;;;;16.42;12.23;;;;;;;;;;6269702;22;20398;-44
2021/11/16 17:46:21;;;;;;;17.05;12.30;;;;;;;;;;6269066;22;20432;-48
2021/11/16 17:48:48;;;;;;;16.98;12.00;;;;;;;;;;6270796;22;20450;-46
2021/11/16 17:51:14;;;;;;;17.00;12.00;;;;;;;;;;6271219;22;20668;-47
2021/11/16 17:53:41;;;;;;;16.02;11.57;;;;;;;;;;6268364;22;20478;-46
2021/11/16 17:56:07;;;;;;;24.52;16.38;;;;;;;;;;6266656;22;20425;-43
2021/11/16 17:58:39;;;;;;;31.13;20.80;;;;;;;;;;6263638;22;20325;-43
2021/11/16 18:01:06;;;;;;;31.70;22.02;;;;;;;;;;6264459;22;20678;-42
2021/11/16 18:03:35;;;;;;;33.03;22.48;;;;;;;;;;6268089;22;20345;-42
2021/11/16 18:07:57;;;;;;;31.50;22.10;;;;;;;;;;6267996;22;20766;-42
2021/11/16 18:09:06;;;;;;;33.63;22.10;;;;;;;;;;6269238;22;20336;-42
2021/11/16 18:11:32;;;;;;;31.63;21.88;;;;;;;;;;6267292;22;20848;-41
2021/11/16 18:13:59;;;;;;;33.47;22.57;;;;;;;;;;6266860;22;20471;-41
2021/11/16 18:16:27;;;;;;;34.35;23.05;;;;;;;;;;6267522;22;20344;-42
2021/11/16 18:18:53;;;;;;;33.88;23.15;;;;;;;;;;6267062;22;20407;-42
2021/11/16 18:21:20;;;;;;;34.50;23.20;;;;;;;;;;6266461;22;20907;-44
2021/11/16 18:23:47;;;;;;;35.13;23.75;;;;;;;;;;6268722;22;20360;-41
2021/11/16 18:26:13;;;;;;;33.10;22.90;;;;;;;;;;6266860;22;20355;-41
2021/11/16 18:28:39;;;;;;;35.67;23.63;;;;;;;;;;6268630;22;20343;-44
2021/11/16 18:31:07;;;;;;;34.75;23.30;;;;;;;;;;6268656;22;20347;-41
2021/11/16 18:33:34;;;;;;;34.55;23.48;;;;;;;;;;6266295;22;20344;-41
2021/11/16 18:36:00;;;;;;;36.00;24.13;;;;;;;;;;6266132;22;20349;-42
2021/11/16 18:38:48;;;;;;;35.15;23.20;;;;;;;;;;6266337;22;20515;-41
2021/11/16 18:41:19;;;;;;;34.78;23.55;;;;;;;;;;6267872;22;20805;-41
2021/11/16 18:46:21;;;;;;;34.10;23.60;;;;;;;;;;6269203;22;20339;-42
2021/11/16 18:48:55;;;;;;;34.97;23.67;;;;;;;;;;6269286;22;20458;-41
2021/11/16 18:51:24;;;;;;;34.07;23.23;;;;;;;;;;6269280;22;20421;-41
2021/11/16 18:53:50;;;;;;;34.47;23.70;;;;;;;;;;6266824;22;20471;-42
2021/11/16 18:56:25;;;;;;;34.25;24.33;;;;;;;;;;6267473;22;20667;-41
2021/11/16 18:58:54;;;;;;;37.15;23.38;;;;;;;;;;6269984;22;20423;-41
2021/11/16 19:01:21;;;;;;;34.53;23.55;;;;;;;;;;6269762;22;20348;-42
2021/11/16 19:03:50;;;;;;;35.60;23.88;;;;;;;;;;6270024;22;20364;-43
2021/11/16 19:06:18;;;;;;;36.67;24.55;;;;;;;;;;6268345;22;20348;-42
2021/11/16 19:08:45;;;;;;;36.08;23.92;;;;;;;;;;6268397;22;20662;-41
2021/11/16 19:11:13;;;;;;;35.92;25.02;;;;;;;;;;6270205;22;20666;-46
2021/11/16 19:13:45;;;;;;;38.45;26.05;;;;;;;;;;6269150;22;20376;-49
2021/11/16 19:16:12;;;;;;;36.83;24.53;;;;;;;;;;6270440;22;20329;-43
2021/11/16 19:18:39;;;;;;;37.17;24.58;;;;;;;;;;6268322;22;20420;-43
2021/11/16 19:21:08;;;;;;;35.37;23.63;;;;;;;;;;6267421;22;20380;-45
2021/11/16 19:23:35;;;;;;;34.10;23.30;;;;;;;;;;6269651;22;20329;-43
2021/11/16 19:26:06;;;;;;;33.33;23.00;;;;;;;;;;6269531;22;20330;-44
2021/11/16 19:28:39;;;;;;;34.40;23.02;;;;;;;;;;6267868;22;20388;-44
2021/11/16 19:31:10;;;;;;;33.65;22.83;;;;;;;;;;6269663;22;20336;-45
2021/11/16 19:33:38;;;;;;;33.38;21.95;;;;;;;;;;6269620;22;20399;-44
2021/11/16 19:36:08;;;;;;;32.85;22.83;;;;;;;;;;6268105;22;20348;-46
2021/11/16 19:38:52;;;;;;;33.13;22.83;;;;;;;;;;6269317;22;20428;-43
2021/11/16 19:41:18;;;;;;;32.67;22.25;;;;;;;;;;6269944;22;20336;-45
2021/11/16 19:43:44;;;;;;;32.38;21.75;;;;;;;;;;6269610;22;20495;-44
2021/11/16 19:46:12;;;;;;;32.17;21.87;;;;;;;;;;6269625;22;20666;-50
2021/11/16 19:48:38;;;;;;;32.28;21.98;;;;;;;;;;6269822;22;20615;-43
2021/11/16 19:51:04;;;;;;;31.85;21.38;;;;;;;;;;6269352;22;20328;-43
2021/11/16 19:53:31;;;;;;;34.90;22.20;;;;;;;;;;6267940;22;20333;-47
2021/11/16 19:55:58;;;;;;;30.48;20.77;;;;;;;;;;6268232;22;20408;-43
2021/11/16 19:58:24;;;;;;;30.27;21.33;;;;;;;;;;6268800;22;20375;-43
2021/11/16 20:00:51;;;;;;;29.65;21.10;;;;;;;;;;6268603;22;20345;-42
2021/11/16 20:03:20;;;;;;;29.25;20.23;;;;;;;;;;6269706;22;20378;-43
2021/11/16 20:05:47;;;;;;;29.98;20.50;;;;;;;;;;6270812;22;20367;-43
2021/11/16 20:08:18;;;;;;;29.38;20.70;;;;;;;;;;6271898;22;20382;-43
2021/11/16 20:10:48;;;;;;;31.15;20.95;;;;;;;;;;6271760;22;20450;-43
2021/11/16 20:13:16;;;;;;;31.42;21.08;;;;;;;;;;6271824;22;20376;-43
2021/11/16 20:15:43;;;;;;;28.80;19.60;;;;;;;;;;6270509;22;20390;-42
2021/11/16 20:18:12;;;;;;;29.42;19.90;;;;;;;;;;6270595;22;20332;-45
2021/11/16 20:20:40;;;;;;;30.80;20.83;;;;;;;;;;6269045;22;20353;-43
2021/11/16 20:23:09;;;;;;;30.27;20.70;;;;;;;;;;6268956;22;20358;-44
2021/11/16 20:25:37;;;;;;;30.15;20.40;;;;;;;;;;6271293;22;20371;-47
2021/11/16 20:28:04;;;;;;;28.90;20.20;;;;;;;;;;6269572;22;20355;-43
2021/11/16 20:30:40;;;;;;;29.55;21.20;;;;;;;;;;6271338;22;20389;-43
2021/11/16 20:33:09;;;;;;;29.97;20.77;;;;;;;;;;6271837;22;20742;-44
2021/11/16 20:35:39;;;;;;;30.00;20.73;;;;;;;;;;6269234;22;20380;-44
2021/11/16 20:38:12;;;;;;;29.70;20.88;;;;;;;;;;6270270;22;20332;-42
2021/11/16 20:45:48;;;;;;;30.17;21.73;;;;;;;;;;6269083;22;20333;-43
2021/11/16 21:01:50;;;;;;;32.90;23.42;;;;;;;;;;6270462;22;20487;-42
2021/11/16 21:04:16;;;;;;;31.63;22.85;;;;;;;;;;6268704;22;20719;-51
2021/11/16 21:06:42;;;;;;;29.10;22.60;;;;;;;;;;6269328;22;20674;-41
2021/11/16 21:09:11;;;;;;;30.15;22.95;;;;;;;;;;6269879;22;20329;-42
2021/11/16 21:11:38;;;;;;;30.13;22.88;;;;;;;;;;6269468;22;20418;-41
2021/11/16 21:14:07;;;;;;;39.40;24.67;;;;;;;;;;6267966;22;20402;-40
2021/11/16 21:16:36;;;;;;;41.93;25.90;;;;;;;;;;6268598;22;20412;-41
2021/11/16 21:19:02;;;;;;;38.53;24.80;;;;;;;;;;6270658;22;20336;-40
2021/11/16 21:21:29;;;;;;;41.72;26.70;;;;;;;;;;6268345;22;20356;-42
2021/11/16 21:23:55;;;;;;;37.90;25.17;;;;;;;;;;6270670;22;20765;-39
2021/11/16 21:26:22;;;;;;;37.53;23.60;;;;;;;;;;6269625;22;20375;-39
2021/11/16 21:28:51;;;;;;;41.13;23.95;;;;;;;;;;6270320;22;20571;-41
2021/11/16 21:31:19;;;;;;;36.78;23.02;;;;;;;;;;6271017;22;20379;-48
2021/11/16 21:33:45;;;;;;;37.03;22.83;;;;;;;;;;6270325;22;20760;-44
2021/11/16 21:36:12;;;;;;;36.35;22.02;;;;;;;;;;6270305;22;20356;-47
2021/11/16 21:38:39;;;;;;;34.33;22.00;;;;;;;;;;6270937;22;20354;-45
2021/11/16 21:41:05;;;;;;;35.42;22.25;;;;;;;;;;6271573;22;20557;-48
2021/11/16 21:43:31;;;;;;;31.73;20.60;;;;;;;;;;6269635;22;20700;-45
2021/11/16 21:45:58;;;;;;;29.73;20.67;;;;;;;;;;6270888;22;20695;-47
2021/11/16 21:48:24;;;;;;;29.08;19.80;;;;;;;;;;6271311;22;20337;-45
2021/11/16 21:50:50;;;;;;;32.03;19.67;;;;;;;;;;6269546;22;20410;-46
2021/11/16 21:53:17;;;;;;;33.05;19.10;;;;;;;;;;6269313;22;20418;-46
2021/11/16 21:55:43;;;;;;;32.58;19.92;;;;;;;;;;6270997;22;20390;-44
2021/11/16 21:58:09;;;;;;;29.67;19.45;;;;;;;;;;6269544;22;20646;-45
2021/11/16 22:00:36;;;;;;;30.73;18.97;;;;;;;;;;6270726;22;20408;-46
